createdAt,value
2023-05-03T00:00:39.685Z,75.92
2023-05-03T00:05:41.725Z,75.44
2023-05-03T00:10:43.602Z,75.67
2023-05-03T00:15:46.608Z,74.53
2023-05-03T00:20:48.330Z,75.39
2023-05-03T00:25:52.772Z,74.50
2023-05-03T00:30:55.930Z,74.47
2023-05-03T00:35:57.634Z,73.84
2023-05-03T00:40:59.334Z,74.82
2023-05-03T00:46:15.930Z,74.08
2023-05-03T00:51:20.458Z,74.15
2023-05-03T00:56:22.368Z,73.98
2023-05-03T01:01:25.840Z,74.79
2023-05-03T01:06:35.948Z,75.44
2023-05-03T01:11:46.944Z,74.82
2023-05-03T01:16:54.087Z,74.74
2023-05-03T01:22:03.147Z,74.27
2023-05-03T01:27:06.296Z,74.76
2023-05-03T01:32:19.304Z,73.92
2023-05-03T01:37:21.500Z,72.95
2023-05-03T01:42:26.379Z,73.40
2023-05-03T01:47:28.111Z,73.65
2023-05-03T01:52:29.896Z,73.61
2023-05-03T01:57:32.947Z,73.62
2023-05-03T02:02:34.638Z,73.74
2023-05-03T02:07:36.316Z,73.49
2023-05-03T02:12:39.420Z,73.80
2023-05-03T02:17:43.531Z,74.27
2023-05-03T02:22:45.158Z,73.83
2023-05-03T02:27:48.170Z,73.54
2023-05-03T02:32:49.887Z,73.31
2023-05-03T02:37:51.564Z,73.37
2023-05-03T02:42:54.603Z,73.32
2023-05-03T02:47:56.348Z,73.11
2023-05-03T02:52:58.065Z,72.60
2023-05-03T02:58:01.123Z,73.64
2023-05-03T03:03:02.938Z,73.38
2023-05-03T03:08:05.357Z,73.36
2023-05-03T03:13:08.398Z,73.19
2023-05-03T03:18:10.117Z,73.50
2023-05-03T03:23:11.857Z,72.96
2023-05-03T03:28:14.876Z,72.42
2023-05-03T03:33:16.757Z,72.39
2023-05-03T03:38:19.266Z,72.56
2023-05-03T03:43:22.286Z,73.10
2023-05-03T03:48:23.934Z,72.86
2023-05-03T03:53:25.679Z,73.17
2023-05-03T03:58:28.705Z,72.81
2023-05-03T04:03:30.534Z,73.41
2023-05-03T04:08:32.255Z,72.82
2023-05-03T04:13:35.220Z,73.69
2023-05-03T04:18:36.888Z,73.87
2023-05-03T04:23:38.642Z,74.52
2023-05-03T04:28:41.640Z,74.94
2023-05-03T04:33:43.394Z,74.91
2023-05-03T04:38:45.078Z,75.79
2023-05-03T04:43:48.131Z,77.48
2023-05-03T04:48:49.773Z,78.05
2023-05-03T04:53:51.463Z,79.11
2023-05-03T04:58:54.521Z,78.56
2023-05-03T05:03:56.402Z,77.76
2023-05-03T05:08:58.468Z,77.25
2023-05-03T05:14:01.466Z,75.73
2023-05-03T05:19:03.172Z,75.52
2023-05-03T05:24:05.308Z,75.54
2023-05-03T05:29:08.332Z,74.84
2023-05-03T05:34:09.999Z,74.57
2023-05-03T05:39:11.644Z,73.08
2023-05-03T05:44:14.636Z,70.46
2023-05-03T05:49:16.333Z,69.16
2023-05-03T05:54:18.066Z,67.32
2023-05-03T05:59:21.189Z,66.28
2023-05-03T06:04:22.949Z,65.71
2023-05-03T06:09:25.226Z,65.03
2023-05-03T06:14:28.480Z,62.65
2023-05-03T06:19:30.193Z,64.10
2023-05-03T06:24:31.946Z,61.37
2023-05-03T06:29:35.051Z,62.52
2023-05-03T06:34:36.764Z,61.06
2023-05-03T06:39:38.413Z,61.97
2023-05-03T06:44:42.209Z,63.09
2023-05-03T06:49:43.865Z,60.55
2023-05-03T06:54:45.582Z,58.32
2023-05-03T06:59:48.778Z,56.38
2023-05-03T07:04:50.478Z,57.63
2023-05-03T07:09:52.124Z,56.81
2023-05-03T07:14:55.526Z,55.51
2023-05-03T07:19:57.248Z,56.66
2023-05-03T07:24:59.116Z,54.50
2023-05-03T07:30:02.563Z,53.52
2023-05-03T07:35:05.098Z,51.83
2023-05-03T07:40:07.971Z,51.18
2023-05-03T07:45:11.710Z,50.33
2023-05-03T07:50:13.214Z,50.35
2023-05-03T07:55:17.354Z,51.63
2023-05-03T08:00:20.718Z,49.21
2023-05-03T08:05:22.868Z,50.40
2023-05-03T08:10:24.791Z,50.30
2023-05-03T08:15:27.938Z,50.25
2023-05-03T08:20:29.784Z,51.01
2023-05-03T08:25:31.468Z,50.77
2023-05-03T08:30:34.590Z,53.20
2023-05-03T08:35:36.486Z,51.61
2023-05-03T08:40:38.433Z,52.12
2023-05-03T08:45:41.603Z,52.62
2023-05-03T08:50:44.413Z,55.38
2023-05-03T08:55:46.090Z,53.29
2023-05-03T09:00:49.168Z,54.84
2023-05-03T09:05:50.814Z,57.17
2023-05-03T09:10:52.467Z,52.94
2023-05-03T09:15:56.633Z,53.67
2023-05-03T09:20:59.151Z,53.40
2023-05-03T09:26:00.998Z,53.32
2023-05-03T09:31:07.655Z,53.99
2023-05-03T09:36:09.696Z,54.33
2023-05-03T09:41:11.389Z,56.04
2023-05-03T09:46:14.671Z,54.34
2023-05-03T09:51:16.718Z,54.29
2023-05-03T09:56:18.352Z,53.62
2023-05-03T10:01:24.110Z,54.53
2023-05-03T10:06:31.302Z,55.62
2023-05-03T10:11:35.775Z,55.13
2023-05-03T10:16:44.572Z,57.33
2023-05-03T10:21:55.554Z,54.17
2023-05-03T10:26:57.226Z,55.96
2023-05-03T10:32:00.332Z,56.65
2023-05-03T10:37:03.083Z,56.70
2023-05-03T10:42:08.582Z,57.04
2023-05-03T10:47:13.441Z,53.79
2023-05-03T10:52:51.568Z,55.29
2023-05-03T10:57:55.515Z,56.26
2023-05-03T11:03:30.878Z,56.29
2023-05-03T11:08:32.628Z,56.89
2023-05-03T11:13:34.384Z,53.71
2023-05-03T11:18:37.553Z,57.22
2023-05-03T11:23:39.718Z,55.94
2023-05-03T11:28:42.872Z,56.21
2023-05-03T11:33:47.999Z,54.79
2023-05-03T11:38:49.814Z,57.54
2023-05-03T11:44:00.560Z,56.54
2023-05-03T11:49:17.514Z,56.07
2023-05-03T11:54:25.182Z,55.45
2023-05-03T11:59:34.907Z,56.62
2023-05-03T12:04:39.570Z,57.40
2023-05-03T12:09:43.641Z,58.82
2023-05-03T12:14:58.193Z,55.87
2023-05-03T12:25:21.559Z,55.85
2023-05-03T12:30:24.504Z,58.97
2023-05-03T12:35:28.522Z,59.71
2023-05-03T12:40:34.226Z,54.98
2023-05-03T12:45:40.125Z,58.25
2023-05-03T12:50:45.564Z,56.98
2023-05-03T12:55:51.439Z,57.18
2023-05-03T13:06:01.087Z,54.64
2023-05-03T13:11:03.798Z,55.88
2023-05-03T13:16:05.753Z,57.43
2023-05-03T13:21:09.786Z,56.44
2023-05-03T13:26:11.497Z,60.62
2023-05-03T13:31:13.235Z,59.96
2023-05-03T13:36:16.424Z,59.72
2023-05-03T13:41:18.530Z,59.82
2023-05-03T13:46:20.258Z,60.70
2023-05-03T13:51:23.651Z,57.69
2023-05-03T13:56:25.355Z,56.82
2023-05-03T14:01:28.114Z,58.88
2023-05-03T14:06:33.381Z,58.11
2023-05-03T14:11:35.716Z,56.55
2023-05-03T14:16:41.301Z,58.65
2023-05-03T14:21:45.163Z,58.44
2023-05-03T14:26:46.888Z,59.54
2023-05-03T14:31:48.650Z,57.05
2023-05-03T14:36:54.406Z,59.38
2023-05-03T14:41:56.613Z,57.74
2023-05-03T14:46:58.467Z,56.32
2023-05-03T14:52:01.668Z,57.67
2023-05-03T14:57:03.599Z,56.05
2023-05-03T15:02:05.311Z,58.08
2023-05-03T15:07:08.392Z,57.18
2023-05-03T15:12:10.074Z,60.05
2023-05-03T15:17:11.800Z,59.50
2023-05-03T15:22:14.988Z,56.83
2023-05-03T15:27:16.708Z,56.62
2023-05-03T15:32:18.390Z,58.07
2023-05-03T15:37:21.544Z,57.69
2023-05-03T15:42:23.413Z,58.06
2023-05-03T15:47:25.321Z,55.88
2023-05-03T15:52:28.383Z,59.58
2023-05-03T15:57:30.519Z,58.64
2023-05-03T16:02:32.288Z,62.53
2023-05-03T16:07:35.517Z,59.26
2023-05-03T16:12:37.418Z,56.91
2023-05-03T16:17:39.157Z,56.82
2023-05-03T16:22:42.264Z,56.96
2023-05-03T16:27:43.925Z,55.75
2023-05-03T16:32:45.591Z,58.31
2023-05-03T16:37:49.737Z,59.69
2023-05-03T16:42:51.432Z,56.53
2023-05-03T16:47:53.154Z,58.96
2023-05-03T16:52:56.403Z,61.66
2023-05-03T16:57:58.020Z,60.76
2023-05-03T17:02:59.877Z,60.29
2023-05-03T17:08:03.417Z,60.47
2023-05-03T17:13:05.353Z,58.29
2023-05-03T17:18:07.032Z,58.03
2023-05-03T17:23:10.133Z,62.48
2023-05-03T17:28:11.780Z,60.22
2023-05-03T17:33:13.500Z,58.51
2023-05-03T17:38:16.594Z,62.59
2023-05-03T17:43:18.274Z,59.73
2023-05-03T17:48:19.994Z,58.32
2023-05-03T17:53:23.190Z,60.40
2023-05-03T17:58:24.935Z,64.30
2023-05-03T18:03:26.752Z,65.24
2023-05-03T18:08:30.054Z,65.85
2023-05-03T18:13:31.826Z,67.84
2023-05-03T18:18:33.639Z,66.47
2023-05-03T18:23:36.917Z,68.34
2023-05-03T18:28:38.558Z,68.68
2023-05-03T18:33:40.277Z,66.77
2023-05-03T18:38:43.345Z,65.39
2023-05-03T18:43:46.298Z,65.64
2023-05-03T18:48:47.998Z,66.75
2023-05-03T18:53:51.087Z,66.70
2023-05-03T18:58:52.704Z,67.68
2023-05-03T19:03:54.396Z,67.61
2023-05-03T19:08:57.444Z,67.75
2023-05-03T19:13:59.127Z,67.94
2023-05-03T19:19:00.905Z,66.67
2023-05-03T19:24:04.279Z,67.63
2023-05-03T19:29:06.012Z,67.73
2023-05-03T19:34:07.666Z,68.04
2023-05-03T19:39:10.651Z,68.71
2023-05-03T19:44:12.340Z,68.33
2023-05-03T19:49:14.029Z,68.48
2023-05-03T19:54:17.191Z,68.50
2023-05-03T19:59:18.842Z,68.82
2023-05-03T20:04:20.557Z,68.90
2023-05-03T20:09:23.723Z,68.80
2023-05-03T20:14:25.668Z,68.66
2023-05-03T20:19:27.359Z,69.38
2023-05-03T20:24:30.533Z,69.50
2023-05-03T20:29:32.133Z,69.17
2023-05-03T20:34:33.815Z,69.48
2023-05-03T20:39:36.794Z,69.53
2023-05-03T20:44:38.428Z,70.13
2023-05-03T20:49:40.120Z,70.16
2023-05-03T20:54:45.125Z,70.81
2023-05-03T20:59:47.131Z,70.58
2023-05-03T21:04:48.755Z,70.48
2023-05-03T21:09:51.996Z,71.64
2023-05-03T21:14:53.646Z,70.86
2023-05-03T21:19:55.360Z,71.66
2023-05-03T21:24:58.841Z,71.67
2023-05-03T21:30:00.742Z,71.81
2023-05-03T21:35:02.434Z,71.32
2023-05-03T21:40:07.543Z,71.96
2023-05-03T21:45:11.270Z,71.58
2023-05-03T21:50:13.077Z,72.09
2023-05-03T21:55:16.097Z,72.42
2023-05-03T22:00:18.314Z,71.64
2023-05-03T22:05:20.076Z,72.18
2023-05-03T22:10:23.112Z,71.66
2023-05-03T22:15:24.797Z,72.23
2023-05-03T22:20:27.885Z,73.21
2023-05-03T22:25:32.237Z,73.00
2023-05-03T22:30:34.159Z,72.39
2023-05-03T22:35:35.806Z,71.68
2023-05-03T22:40:38.918Z,72.14
2023-05-03T22:45:40.709Z,72.10
2023-05-03T22:50:42.373Z,73.02
2023-05-03T22:55:54.312Z,72.81
2023-05-03T23:00:56.252Z,72.08
2023-05-03T23:05:57.883Z,72.67
2023-05-03T23:11:00.970Z,73.37
2023-05-03T23:16:02.781Z,73.70
2023-05-03T23:21:06.688Z,73.64
2023-05-03T23:26:09.731Z,74.19
2023-05-03T23:31:11.920Z,74.52
2023-05-03T23:36:14.076Z,74.49
2023-05-03T23:41:17.213Z,74.71
2023-05-03T23:46:18.994Z,75.61
2023-05-03T23:51:20.746Z,74.69
2023-05-03T23:56:24.508Z,75.58
